Terminal Aerodrome Forecast
Issued by NWS Topeka, KS

Home | Current Version | Previous Version | Graphics & Text | Print | Product List | Glossary On
Versions: 1 2 3 4 5 6 7 8 9 10 11 12 13 14 15 16 17 18 19 20 21 22 23 24 25 26
000
FTUS43 KTOP 250540
TAFTOP
TAF
KTOP 250540Z 2506/2606 14006KT 5SM -TSRA BR BKN035CB
      TEMPO 2506/2507 27015G30KT 2SM TSRA BR BKN025CB
     FM251200 18011KT P6SM BKN025
     FM251800 19015G22KT P6SM SCT030
     FM260100 19011KT P6SM SCT250=

USA.gov is the U.S. government's official web portal to all federal, state and local government web resources and services.